Time;durP1;ratioP1;P1;durP2;ratioP2;P2;SDS_P1;SDS_P2;PMS_P1;PMS_P2;Temp;Humidity;BMP_temperature;BMP_pressure;BME280_temperature;BME280_humidity;BME280_pressure;Samples;Min_cycle;Max_cycle;Signal;HPM_P1;HPM_P2
2022/05/02 00:02:41;;;;;;;11.73;7.50;;;;;;;9.42;100.00;100003.75;12194630;19;20014;-82
2022/05/02 00:06:43;;;;;;;13.40;8.48;;;;;;;9.36;100.00;100004.69;12190311;19;20010;-83
2022/05/02 00:10:44;;;;;;;12.15;8.07;;;;;;;9.31;100.00;99996.31;12181559;19;20474;-83
2022/05/02 00:14:46;;;;;;;16.85;8.45;;;;;;;9.26;100.00;99987.94;12192294;19;20559;-83
2022/05/02 00:18:48;;;;;;;14.13;8.45;;;;;;;9.23;100.00;99982.94;12201480;19;20018;-84
2022/05/02 00:22:51;;;;;;;12.82;8.55;;;;;;;9.23;100.00;99991.19;12166485;19;20058;-84
2022/05/02 00:26:53;;;;;;;14.18;9.10;;;;;;;9.22;100.00;99994.97;12202090;19;20073;-82
2022/05/02 00:30:58;;;;;;;15.68;8.27;;;;;;;9.25;100.00;99997.25;12169344;19;20019;-83
2022/05/02 00:34:59;;;;;;;16.23;8.70;;;;;;;9.31;100.00;99990.81;12202291;19;20082;-83
2022/05/02 00:39:01;;;;;;;12.73;8.63;;;;;;;9.32;100.00;99993.34;12199924;19;20034;-84
2022/05/02 00:43:04;;;;;;;13.93;8.73;;;;;;;9.31;100.00;99985.31;12173288;19;20371;-85
2022/05/02 00:47:05;;;;;;;12.80;8.10;;;;;;;9.30;100.00;99980.88;12189636;19;20018;-84
2022/05/02 00:51:07;;;;;;;13.60;9.25;;;;;;;9.26;100.00;99983.28;12199360;19;20059;-83
2022/05/02 00:55:09;;;;;;;14.35;8.55;;;;;;;9.26;100.00;99982.44;12173133;19;20019;-84
2022/05/02 00:59:15;;;;;;;14.88;8.48;;;;;;;9.25;100.00;99981.63;12197551;19;20386;-83
2022/05/02 01:03:17;;;;;;;16.45;10.13;;;;;;;9.24;100.00;99984.59;12200574;19;20085;-84
2022/05/02 01:07:21;;;;;;;14.00;7.97;;;;;;;9.18;100.00;99985.53;12171463;19;20587;-82
2022/05/02 01:11:23;;;;;;;;;;;;;;;9.08;100.00;99984.22;12188689;19;20014;-85
2022/05/02 01:15:27;;;;;;;14.20;8.45;;;;;;;9.00;100.00;99983.72;12201260;19;19979;-85
2022/05/02 01:19:29;;;;;;;14.52;9.00;;;;;;;8.93;100.00;99983.81;12191151;19;20018;-84
2022/05/02 01:23:30;;;;;;;13.88;9.23;;;;;;;8.93;100.00;99982.97;12207664;19;20019;-85
2022/05/02 01:27:32;;;;;;;13.85;9.00;;;;;;;8.94;100.00;99974.50;12207264;19;20414;-84
2022/05/02 01:31:34;;;;;;;12.80;8.00;;;;;;;8.97;100.00;99974.03;12189520;19;20078;-85
2022/05/02 01:35:35;;;;;;;14.55;9.35;;;;;;;9.04;100.00;99963.78;12201325;19;20014;-85
2022/05/02 01:39:37;;;;;;;17.17;9.50;;;;;;;9.08;100.00;99962.22;12206424;19;20032;-85
2022/05/02 01:43:40;;;;;;;17.73;9.30;;;;;;;9.16;100.00;99960.19;12190294;19;20094;-86
2022/05/02 01:47:42;;;;;;;;;;;;;;;9.16;100.00;99960.19;12209754;19;20016;-82
2022/05/02 01:51:44;;;;;;;15.07;9.45;;;;;;;9.16;100.00;99961.03;12209357;19;19998;-84
2022/05/02 01:55:45;;;;;;;18.65;10.18;;;;;;;9.12;100.00;99960.66;12183349;19;20109;-84
2022/05/02 01:59:47;;;;;;;17.27;10.70;;;;;;;9.15;100.00;99959.34;12211761;19;20007;-83
2022/05/02 02:03:49;;;;;;;15.73;10.13;;;;;;;9.13;100.00;99956.84;12194158;19;20039;-84
2022/05/02 02:07:50;;;;;;;19.13;10.30;;;;;;;9.13;100.00;99961.50;12176915;19;20027;-83
2022/05/02 02:11:52;;;;;;;16.02;11.00;;;;;;;9.10;100.00;99954.56;12196873;19;20535;-83
2022/05/02 02:15:54;;;;;;;17.80;9.90;;;;;;;9.07;100.00;99957.81;12185895;19;20025;-82
2022/05/02 02:19:56;;;;;;;17.20;10.80;;;;;;;9.02;100.00;99956.84;12208901;19;20037;-84
2022/05/02 02:23:58;;;;;;;15.38;10.20;;;;;;;9.00;100.00;99945.22;12206273;19;20070;-83
2022/05/02 02:28:00;;;;;;;15.15;9.75;;;;;;;9.00;100.00;99946.06;12181489;19;20090;-84
2022/05/02 02:32:02;;;;;;;16.53;10.47;;;;;;;9.00;100.00;99948.81;12209338;19;21017;-85
2022/05/02 02:36:04;;;;;;;14.23;9.93;;;;;;;8.98;100.00;99942.69;12191296;19;20014;-84
2022/05/02 02:40:09;;;;;;;18.50;9.98;;;;;;;8.96;100.00;99944.88;12174099;19;20006;-85
2022/05/02 02:44:11;;;;;;;18.45;9.90;;;;;;;8.92;100.00;99937.31;12197021;19;20017;-84
2022/05/02 02:48:12;;;;;;;15.50;9.90;;;;;;;8.87;100.00;99927.88;12194845;19;20007;-84
2022/05/02 02:52:14;;;;;;;20.17;11.25;;;;;;;8.84;100.00;99938.50;12177752;19;20028;-83
2022/05/02 02:56:16;;;;;;;19.10;9.95;;;;;;;8.79;100.00;99928.22;12198218;19;20007;-82
2022/05/02 03:00:18;;;;;;;15.82;9.25;;;;;;;8.73;100.00;99928.31;12207008;19;20085;-83
2022/05/02 03:08:41;;;;;;;17.58;10.63;;;;;;;8.60;100.00;99918.38;12195848;19;20014;-82
2022/05/02 03:12:43;;;;;;;14.55;10.38;;;;;;;8.51;100.00;99915.13;12201139;19;20024;-84
2022/05/02 03:16:45;;;;;;;16.95;10.55;;;;;;;8.42;100.00;99909.13;12172993;19;20023;-83
2022/05/02 03:20:47;;;;;;;16.40;10.55;;;;;;;8.32;100.00;99900.56;12196581;19;20007;-82
2022/05/02 03:24:49;;;;;;;28.27;13.23;;;;;;;8.20;100.00;99897.78;12194797;19;20014;-84
2022/05/02 03:28:51;;;;;;;21.20;11.40;;;;;;;8.07;100.00;99892.47;12179578;19;20039;-85
2022/05/02 03:32:53;;;;;;;19.52;11.80;;;;;;;7.98;100.00;99891.94;12206092;19;20004;-86
2022/05/02 03:36:55;;;;;;;16.80;11.40;;;;;;;7.90;100.00;99888.69;12177940;19;20073;-85
2022/05/02 03:40:56;;;;;;;21.17;11.77;;;;;;;7.84;100.00;99884.94;12195599;19;20014;-85
2022/05/02 03:44:58;;;;;;;20.13;11.90;;;;;;;7.79;100.00;99889.44;12202690;19;20017;-84
2022/05/02 03:49:00;;;;;;;23.80;12.85;;;;;;;7.74;100.00;99882.75;12177197;19;20036;-87
2022/05/02 03:53:04;;;;;;;23.35;12.65;;;;;;;7.71;100.00;99894.19;12190864;19;20094;-85
2022/05/02 03:57:06;;;;;;;21.05;12.48;;;;;;;7.68;100.00;99886.41;12196017;19;20015;-85
2022/05/02 04:01:08;;;;;;;18.30;12.80;;;;;;;7.66;100.00;99891.28;12177474;19;20014;-84
2022/05/02 04:05:10;;;;;;;23.98;14.55;;;;;;;7.61;100.00;99885.66;12191630;19;20020;-83
2022/05/02 04:09:11;;;;;;;27.17;14.35;;;;;;;7.60;100.00;99891.38;12196963;19;20027;-84
2022/05/02 04:13:13;;;;;;;27.15;14.88;;;;;;;7.55;100.00;99894.78;12170668;19;20082;-85
2022/05/02 04:17:15;;;;;;;21.75;13.80;;;;;;;7.55;100.00;99894.78;12197828;19;20009;-86
2022/05/02 04:21:21;;;;;;;23.23;14.15;;;;;;;7.57;100.00;99894.56;12193247;19;20353;-85
2022/05/02 04:25:23;;;;;;;29.35;15.95;;;;;;;7.56;100.00;99891.00;12185523;19;20567;-85
2022/05/02 04:29:26;;;;;;;25.63;14.70;;;;;;;7.55;100.00;99889.31;12205004;19;20021;-85
2022/05/02 04:33:28;;;;;;;24.27;14.57;;;;;;;7.55;100.00;99894.78;12211252;19;20018;-84
2022/05/02 04:37:29;;;;;;;25.92;15.10;;;;;;;7.53;100.00;99885.97;12171865;19;20343;-84
2022/05/02 04:41:31;;;;;;;28.40;15.30;;;;;;;7.48;100.00;99896.78;12200236;19;20027;-83
2022/05/02 04:45:33;;;;;;;23.05;14.75;;;;;;;7.46;100.00;99904.38;12203780;19;20011;-84
2022/05/02 04:49:34;;;;;;;30.75;16.38;;;;;;;7.45;100.00;99913.69;12193863;19;20097;-84
2022/05/02 04:53:36;;;;;;;24.50;16.27;;;;;;;7.45;100.00;99914.50;12212580;19;20010;-85
2022/05/02 04:57:38;;;;;;;30.45;16.65;;;;;;;7.48;100.00;99914.06;12208568;19;20475;-85
2022/05/02 05:01:40;;;;;;;32.75;18.55;;;;;;;7.55;100.00;99903.00;12192220;19;21914;-85
2022/05/02 05:05:41;;;;;;;32.33;18.13;;;;;;;7.64;100.00;99912.63;12221523;19;20357;-85
2022/05/02 05:09:43;;;;;;;28.55;18.20;;;;;;;7.70;100.00;99914.47;12219273;19;20011;-85
2022/05/02 05:19:15;;;;;;;28.48;17.48;;;;;;;7.90;100.00;99922.44;12210334;19;20042;-85
2022/05/02 05:23:51;;;;;;;36.47;17.70;;;;;;;8.03;100.00;99921.47;12193659;19;20566;-86
2022/05/02 05:28:15;;;;;;;28.50;16.52;;;;;;;8.14;100.00;99917.91;12188750;19;20013;-85
2022/05/02 05:33:01;;;;;;;26.23;16.30;;;;;;;8.23;100.00;99913.78;12209344;19;20355;-85
2022/05/02 05:37:27;;;;;;;25.40;15.88;;;;;;;8.33;100.00;99916.00;12196569;19;20349;-86
2022/05/02 05:41:34;;;;;;;27.45;16.25;;;;;;;8.44;100.00;99914.38;12211041;19;20006;-84
2022/05/02 05:45:43;;;;;;;26.10;14.75;;;;;;;8.52;100.00;99922.28;12216991;19;20343;-85
2022/05/02 05:50:21;;;;;;;25.52;15.38;;;;;;;8.62;100.00;99928.03;12182546;19;20006;-86
2022/05/02 05:54:40;;;;;;;23.52;13.93;;;;;;;8.69;100.00;99930.72;12201963;19;20457;-85
2022/05/02 05:59:08;;;;;;;20.13;13.15;;;;;;;8.80;100.00;99923.56;12188988;19;20010;-84
2022/05/02 06:03:24;;;;;;;21.77;13.05;;;;;;;8.90;100.00;99929.31;12206983;19;20017;-86
2022/05/02 06:07:44;;;;;;;20.60;13.48;;;;;;;8.97;100.00;99929.22;12179686;19;20757;-86
2022/05/02 06:11:49;;;;;;;22.88;12.23;;;;;;;9.04;100.00;99938.16;12206992;19;20026;-85
2022/05/02 06:48:22;;;;;;;16.77;10.27;;;;;;;10.12;100.00;99944.22;12237747;19;20010;-83
2022/05/02 07:25:57;;;;;;;13.23;8.55;;;;;;;12.64;98.73;99936.91;12234903;19;20002;-82
2022/05/02 08:03:44;;;;;;;;;;;;;;;14.11;79.20;99940.00;12226887;19;20010;-82
2022/05/02 08:08:11;;;;;;;9.55;6.57;;;;;;;14.14;81.28;99938.63;12199301;19;20357;-81
2022/05/02 08:12:40;;;;;;;10.82;7.35;;;;;;;14.35;78.74;99943.13;12210941;19;20014;-82
2022/05/02 08:17:41;;;;;;;10.48;7.28;;;;;;;14.67;78.65;99930.25;12220582;19;20026;-82
2022/05/02 08:31:48;;;;;;;8.77;6.40;;;;;;;15.40;73.78;99930.81;12178922;19;20045;-83
2022/05/02 08:52:05;;;;;;;;;;;;;;;;;;;;;
2022/05/02 08:56:46;;;;;;;10.77;5.85;;;;;;;16.99;65.59;99919.97;12164547;19;20060;-83
2022/05/02 09:01:18;;;;;;;9.18;5.63;;;;;;;17.28;62.20;99920.00;12195142;19;20014;-82
2022/05/02 09:05:48;;;;;;;9.10;5.30;;;;;;;17.37;62.48;99916.56;12096095;19;2004473;-83
2022/05/02 09:10:12;;;;;;;11.23;5.47;;;;;;;17.44;61.90;99914.31;12201958;19;20117;-83
2022/05/02 09:14:56;;;;;;;9.48;5.95;;;;;;;17.64;59.62;99922.47;12175568;19;20011;-82
2022/05/02 09:19:43;;;;;;;7.90;5.72;;;;;;;17.84;58.42;99910.28;12170568;19;20014;-83
2022/05/02 09:24:15;;;;;;;11.10;5.97;;;;;;;17.91;58.36;99912.75;12202895;19;20031;-82
2022/05/02 09:28:20;;;;;;;10.77;6.10;;;;;;;18.09;57.89;99906.38;12202137;19;20361;-84
2022/05/02 09:33:03;;;;;;;9.43;6.10;;;;;;;18.20;58.40;99905.13;12203540;19;20017;-84
2022/05/02 09:37:49;;;;;;;12.48;6.95;;;;;;;17.89;57.53;99913.00;12198723;19;20011;-83
2022/05/02 09:42:55;;;;;;;;;;;;;;;;;;;;;
2022/05/02 09:52:28;;;;;;;9.63;6.22;;;;;;;18.10;56.42;99896.88;12234031;19;20010;-83
2022/05/02 09:56:45;;;;;;;11.35;6.00;;;;;;;18.54;57.54;99901.31;12219945;19;20016;-83
2022/05/02 10:01:06;;;;;;;13.35;5.88;;;;;;;18.64;53.98;99889.19;12221333;19;20011;-82
2022/05/02 10:05:09;;;;;;;14.27;6.28;;;;;;;18.50;54.34;99883.53;12197891;19;20464;-79
2022/05/02 10:09:24;;;;;;;7.97;5.87;;;;;;;18.74;54.47;99879.84;12225079;19;20017;-82
2022/05/02 10:13:53;;;;;;;9.65;5.90;;;;;;;19.37;53.24;99872.97;12197020;19;20464;-80
2022/05/02 10:18:14;;;;;;;9.48;5.63;;;;;;;19.74;52.89;99863.63;12223429;19;20010;-80
2022/05/02 10:22:20;;;;;;;13.55;6.47;;;;;;;19.96;51.30;99860.13;12194690;19;20010;-81
2022/05/02 10:26:50;;;;;;;10.07;5.38;;;;;;;20.01;51.22;99857.19;12215077;19;20018;-81
2022/05/02 10:31:03;;;;;;;;;;;;;;;19.81;50.59;99852.88;12201775;19;20014;-80
2022/05/02 10:35:10;;;;;;;9.52;5.43;;;;;;;19.71;52.36;99850.25;12215339;19;19922;-83
2022/05/02 10:39:31;;;;;;;12.52;6.40;;;;;;;19.65;50.74;99845.91;12203134;19;20019;-80
2022/05/02 10:43:37;;;;;;;8.85;5.68;;;;;;;20.03;50.83;99843.72;12175591;19;20492;-81
2022/05/02 10:47:39;;;;;;;12.13;6.35;;;;;;;20.26;49.82;99844.66;12210449;19;20070;-81
2022/05/02 10:51:51;;;;;;;8.57;5.97;;;;;;;20.33;49.19;99839.44;12207493;19;20010;-82
2022/05/02 10:56:18;;;;;;;13.93;6.73;;;;;;;20.04;49.44;99832.22;12179470;19;20023;-80
2022/05/02 11:00:21;;;;;;;9.65;5.22;;;;;;;20.20;49.26;99829.94;12209330;19;20014;-82
2022/05/02 11:04:40;;;;;;;6.55;5.40;;;;;;;20.56;49.80;99826.34;12185292;19;20063;-83
2022/05/02 11:08:47;;;;;;;7.13;5.55;;;;;;;20.64;48.80;99828.41;12206950;19;20014;-82
2022/05/02 11:12:55;;;;;;;10.57;6.38;;;;;;;20.73;46.83;99819.22;12196947;19;20043;-81
2022/05/02 11:17:18;;;;;;;9.18;6.53;;;;;;;20.83;46.89;99825.41;12200636;19;20587;-81
2022/05/02 11:21:41;;;;;;;10.68;6.65;;;;;;;21.05;44.57;99804.13;12199521;19;20023;-79
2022/05/02 11:26:01;;;;;;;8.48;6.22;;;;;;;21.27;44.84;99812.53;12195339;19;20007;-82
2022/05/02 11:30:06;;;;;;;8.52;6.47;;;;;;;21.57;44.78;99812.88;12207940;19;20014;-84
2022/05/02 11:34:33;;;;;;;9.85;6.80;;;;;;;21.90;43.89;99804.91;12203956;19;20171;-84
2022/05/02 11:38:59;;;;;;;9.38;7.05;;;;;;;22.34;43.58;99794.63;12227985;19;20014;-84
2022/05/02 11:43:03;;;;;;;10.27;6.97;;;;;;;23.03;40.40;99790.16;12204842;19;20011;-85
2022/05/02 11:47:35;;;;;;;10.13;6.43;;;;;;;23.24;41.55;99787.44;12231690;19;20017;-84
2022/05/02 11:51:41;;;;;;;9.38;6.10;;;;;;;23.24;41.39;99782.63;12218455;19;20010;-82
2022/05/02 11:55:44;;;;;;;9.82;6.60;;;;;;;23.26;41.76;99785.09;12197151;19;20018;-82
2022/05/02 12:00:05;;;;;;;10.65;7.25;;;;;;;23.17;40.83;99780.34;12228554;19;20021;-82
2022/05/02 12:08:46;;;;;;;10.88;6.13;;;;;;;23.09;41.38;99775.56;12228244;19;20017;-82
2022/05/02 12:18:07;;;;;;;10.93;6.20;;;;;;;23.12;42.32;99769.28;12239504;19;20013;-81
2022/05/02 12:22:26;;;;;;;10.20;6.30;;;;;;;23.13;41.13;99762.50;12217618;19;20014;-81
2022/05/02 12:26:56;;;;;;;8.38;5.45;;;;;;;22.97;41.97;99767.84;12239739;19;20010;-81
2022/05/02 12:31:00;;;;;;;8.73;5.28;;;;;;;22.88;41.12;99766.16;12218920;19;20011;-82
2022/05/02 12:35:04;;;;;;;8.70;6.20;;;;;;;22.83;40.72;99757.91;12230517;19;20007;-81
2022/05/02 12:39:13;;;;;;;9.10;5.68;;;;;;;23.35;40.25;99755.81;12236464;19;20030;-82
2022/05/02 12:43:24;;;;;;;10.32;7.30;;;;;;;23.62;38.68;99748.91;12198271;19;20367;-81
2022/05/02 12:47:42;;;;;;;11.60;6.43;;;;;;;23.89;38.55;99744.00;12220367;19;20011;-82
2022/05/02 12:51:51;;;;;;;8.05;5.82;;;;;;;23.38;39.47;99745.84;12231708;19;20054;-83
2022/05/02 12:55:53;;;;;;;11.35;6.55;;;;;;;23.50;39.79;99745.16;12210899;19;20011;-81
2022/05/02 13:04:22;;;;;;;8.52;6.78;;;;;;;23.13;39.88;99740.00;12202781;19;20606;-82
2022/05/02 13:08:38;;;;;;;13.13;7.00;;;;;;;22.65;39.62;99732.66;12230969;19;20041;-81
2022/05/02 13:13:06;;;;;;;6.22;4.95;;;;;;;22.57;40.87;99725.06;12249794;19;20006;-81
2022/05/02 13:17:12;;;;;;;8.60;5.78;;;;;;;22.64;41.53;99731.00;12227491;19;20038;-82
2022/05/02 13:21:16;;;;;;;13.55;6.63;;;;;;;22.48;41.25;99727.06;12232017;19;20021;-82
2022/05/02 13:25:45;;;;;;;6.95;5.53;;;;;;;22.50;41.95;99719.94;12211213;19;20031;-81
2022/05/02 13:30:00;;;;;;;7.55;5.68;;;;;;;22.60;41.60;99718.78;12244413;19;20100;-82
2022/05/02 13:34:06;;;;;;;10.23;5.80;;;;;;;22.73;41.54;99708.53;12228869;19;20017;-82
2022/05/02 13:38:10;;;;;;;10.38;6.00;;;;;;;22.80;41.73;99711.63;12243917;19;20033;-83
2022/05/02 13:42:38;;;;;;;10.82;6.72;;;;;;;22.71;40.91;99708.84;12249584;19;20006;-83
2022/05/02 13:47:02;;;;;;;8.63;6.18;;;;;;;22.70;41.00;99695.16;12217115;19;20011;-82
2022/05/02 13:51:33;;;;;;;7.57;5.40;;;;;;;22.56;41.85;99709.38;12241742;19;20006;-81
2022/05/02 13:55:53;;;;;;;7.55;5.90;;;;;;;22.55;40.73;99693.69;12219466;19;20014;-82
2022/05/02 14:04:54;;;;;;;7.47;5.47;;;;;;;23.19;41.26;99688.06;12201939;19;20006;-82
2022/05/02 14:08:59;;;;;;;7.20;5.65;;;;;;;23.52;40.25;99689.41;12224309;19;20014;-82
2022/05/02 14:13:16;;;;;;;9.48;5.55;;;;;;;23.49;39.32;99681.63;12202954;19;20007;-82
2022/05/02 14:17:36;;;;;;;10.07;5.95;;;;;;;23.32;38.51;99672.16;12225103;19;20017;-81
2022/05/02 14:21:46;;;;;;;;;;;;;;;23.28;39.42;99668.34;12229252;19;20057;-82
2022/05/02 14:25:48;;;;;;;7.10;5.13;;;;;;;23.36;39.62;99669.47;12201679;19;20284;-82
2022/05/02 14:30:06;;;;;;;9.68;5.45;;;;;;;23.58;38.89;99659.91;12216624;19;20268;-81
2022/05/02 14:34:13;;;;;;;7.25;5.05;;;;;;;23.41;38.48;99663.66;12200980;19;20111;-82
2022/05/02 14:38:20;;;;;;;6.30;4.45;;;;;;;23.42;39.33;99665.31;12223100;19;20006;-82
2022/05/02 14:42:30;;;;;;;6.20;5.22;;;;;;;23.51;39.82;99659.63;12221438;19;20038;-82
2022/05/02 14:46:35;;;;;;;7.15;5.15;;;;;;;23.57;38.70;99653.47;12198778;19;20084;-81
2022/05/02 14:50:40;;;;;;;7.95;5.00;;;;;;;23.48;37.82;99663.13;12223034;19;20017;-80
2022/05/02 14:54:44;;;;;;;7.53;4.95;;;;;;;23.73;37.93;99650.09;12225437;19;20003;-81
2022/05/02 14:58:53;;;;;;;8.32;6.10;;;;;;;23.72;37.76;99654.88;12202538;19;20017;-82
2022/05/02 15:02:59;;;;;;;8.20;5.22;;;;;;;24.09;37.44;99649.47;12223891;19;20014;-81
2022/05/02 15:07:02;;;;;;;9.93;4.90;;;;;;;23.79;36.46;99645.91;12203275;19;20002;-82
2022/05/02 15:11:06;;;;;;;6.00;4.60;;;;;;;23.53;36.08;99640.41;12230832;19;20010;-79
2022/05/02 15:15:14;;;;;;;7.38;5.00;;;;;;;23.38;36.69;99641.81;12229321;19;20011;-80
2022/05/02 15:19:41;;;;;;;8.27;4.38;;;;;;;23.23;37.24;99634.81;12208832;19;20107;-81
2022/05/02 15:23:43;;;;;;;8.45;4.82;;;;;;;23.32;38.37;99637.56;12211118;19;20014;-81
2022/05/02 15:36:39;;;;;;;8.32;4.50;;;;;;;23.44;37.43;99629.25;12195063;19;20015;-81
2022/05/02 15:36:53;;;;;;;9.02;4.93;;;;;;;23.43;37.37;99624.78;12210792;19;20006;-82
2022/05/02 15:40:54;;;;;;;6.28;4.90;;;;;;;24.00;36.82;99617.75;12180106;19;20019;-81
2022/05/02 15:44:56;;;;;;;6.57;4.83;;;;;;;23.56;37.09;99614.44;12206417;19;20011;-80
2022/05/02 15:49:08;;;;;;;7.63;5.13;;;;;;;22.87;37.25;99618.41;12187678;19;20018;-81
2022/05/02 15:53:20;;;;;;;6.85;4.60;;;;;;;22.68;38.64;99613.22;12189888;19;20015;-79
2022/05/02 15:57:44;;;;;;;6.00;4.57;;;;;;;22.53;39.03;99612.59;12206532;19;20014;-81
2022/05/02 16:01:57;;;;;;;8.57;5.65;;;;;;;22.38;39.16;99615.09;12172544;19;20007;-80
2022/05/02 16:06:17;;;;;;;;;;;;;;;22.11;39.51;99610.66;12195317;19;20349;-82
2022/05/02 16:10:31;;;;;;;5.65;4.75;;;;;;;21.85;40.08;99603.06;12177682;19;19907;-80
2022/05/02 16:14:45;;;;;;;8.88;4.93;;;;;;;21.62;40.90;99605.19;12200519;19;20018;-81
2022/05/02 16:18:53;;;;;;;8.93;5.30;;;;;;;21.41;41.85;99610.63;12199146;19;20010;-81
2022/05/02 16:22:57;;;;;;;6.22;4.55;;;;;;;21.23;41.97;99601.31;12186652;19;20010;-80
2022/05/02 16:27:00;;;;;;;7.95;5.50;;;;;;;21.08;42.27;99597.00;12204052;19;20006;-80
2022/05/02 16:31:08;;;;;;;5.95;4.45;;;;;;;20.94;41.69;99599.94;12186574;19;20011;-82
2022/05/02 16:35:12;;;;;;;7.65;4.85;;;;;;;20.86;43.08;99595.13;12212647;19;20011;-81
2022/05/02 16:39:15;;;;;;;7.07;5.25;;;;;;;20.92;43.13;99588.22;12192847;19;20863;-80
2022/05/02 16:43:24;;;;;;;7.88;5.57;;;;;;;20.96;42.05;99590.38;12196662;19;20014;-81
2022/05/02 16:47:26;;;;;;;8.23;5.53;;;;;;;20.96;41.67;99584.78;12209646;19;20007;-81
2022/05/02 16:51:29;;;;;;;6.15;4.68;;;;;;;20.79;41.75;99588.31;12203243;19;20014;-82
2022/05/02 16:55:33;;;;;;;5.38;4.25;;;;;;;20.75;41.38;99588.16;12193478;19;20018;-81
2022/05/02 16:59:37;;;;;;;6.97;5.35;;;;;;;20.62;41.84;99589.09;12212672;19;20444;-81
2022/05/02 17:03:42;;;;;;;7.63;5.40;;;;;;;20.68;41.86;99582.22;12219468;19;20003;-80
2022/05/02 17:07:44;;;;;;;8.35;4.65;;;;;;;20.63;42.56;99579.53;12193489;19;20027;-82
2022/05/02 17:11:46;;;;;;;6.75;4.18;;;;;;;20.59;43.00;99582.16;12213695;19;20007;-81
2022/05/02 17:16:23;;;;;;;10.60;5.05;;;;;;;20.46;43.39;99581.09;12216614;19;20015;-81
2022/05/02 17:20:31;;;;;;;7.10;4.70;;;;;;;20.36;43.73;99577.72;12106882;19;2004409;-81
2022/05/02 17:24:47;;;;;;;9.10;5.47;;;;;;;20.27;45.10;99577.69;12220167;19;20025;-81
2022/05/02 17:28:57;;;;;;;7.10;5.57;;;;;;;20.04;45.18;99577.69;12191150;19;20002;-81
2022/05/02 17:33:01;;;;;;;7.40;5.00;;;;;;;19.80;44.72;99583.59;12215080;19;20018;-81
2022/05/02 17:37:05;;;;;;;6.40;4.90;;;;;;;19.78;45.29;99579.47;12191356;19;20703;-81
2022/05/02 17:41:10;;;;;;;8.63;4.90;;;;;;;19.71;47.17;99579.09;12211861;19;20007;-81
2022/05/02 17:45:12;;;;;;;11.75;7.03;;;;;;;19.64;47.56;99581.47;12218330;19;20019;-81
2022/05/02 17:49:16;;;;;;;8.87;6.50;;;;;;;19.48;49.00;99590.22;12193423;19;20010;-81
2022/05/02 17:53:20;;;;;;;8.00;5.00;;;;;;;19.24;50.29;99584.03;12216695;19;20027;-80
2022/05/02 17:57:27;;;;;;;8.80;5.70;;;;;;;19.08;50.75;99589.16;12195700;19;20015;-80
2022/05/02 18:01:31;;;;;;;6.93;5.30;;;;;;;18.86;51.67;99587.91;12173492;19;20007;-80
2022/05/02 18:05:34;;;;;;;9.27;5.45;;;;;;;18.60;53.25;99587.56;12204457;19;20014;-81
2022/05/02 18:09:37;;;;;;;12.07;5.38;;;;;;;18.31;53.93;99585.03;12208838;19;20118;-82
2022/05/02 18:13:42;;;;;;;8.30;5.03;;;;;;;18.06;55.39;99591.91;12183149;19;20078;-81
2022/05/02 18:17:52;;;;;;;7.88;5.00;;;;;;;17.76;56.54;99594.03;12215272;19;20023;-81
2022/05/02 18:22:03;;;;;;;13.35;8.30;;;;;;;17.45;57.28;99590.84;12193995;19;20574;-82
2022/05/02 18:26:19;;;;;;;8.07;6.00;;;;;;;17.14;58.42;99593.25;12205815;19;20066;-82
2022/05/02 18:30:31;;;;;;;8.02;5.43;;;;;;;16.87;58.84;99599.44;12218759;19;20456;-83
2022/05/02 18:39:08;;;;;;;8.65;5.13;;;;;;;16.31;61.62;99609.19;12208753;19;20007;-82
2022/05/02 18:43:18;;;;;;;10.68;6.53;;;;;;;16.09;62.25;99597.72;12186207;19;20016;-82
2022/05/02 18:56:08;;;;;;;11.48;5.50;;;;;;;15.43;64.15;99612.91;12182725;19;20053;-82
2022/05/02 19:00:10;;;;;;;6.77;5.23;;;;;;;15.27;64.47;99609.38;12206297;19;20018;-82
2022/05/02 19:04:14;;;;;;;9.30;5.72;;;;;;;15.11;65.37;99622.50;12185476;19;20237;-83
2022/05/02 19:08:23;;;;;;;10.38;5.90;;;;;;;14.97;66.22;99622.28;12210970;19;20011;-83
2022/05/02 19:12:34;;;;;;;8.75;6.22;;;;;;;14.81;67.32;99627.06;12204881;19;20017;-83
2022/05/02 19:16:42;;;;;;;10.73;6.40;;;;;;;14.72;68.34;99637.09;12185572;19;20035;-86
2022/05/02 19:21:02;;;;;;;8.70;5.95;;;;;;;14.62;69.28;99633.50;12205336;19;20414;-83
2022/05/02 19:25:08;;;;;;;11.93;6.32;;;;;;;14.51;69.42;99635.41;12184092;19;20011;-83
2022/05/02 19:29:14;;;;;;;9.52;6.40;;;;;;;14.39;70.23;99644.03;12213355;19;20010;-83
2022/05/02 19:33:21;;;;;;;10.68;6.47;;;;;;;14.32;70.54;99641.53;12199199;19;20050;-83
2022/05/02 19:42:02;;;;;;;11.20;7.32;;;;;;;14.34;70.89;99638.50;12214947;19;20014;-83
2022/05/02 19:46:09;;;;;;;9.38;6.63;;;;;;;14.38;70.96;99645.16;12186939;19;20015;-83
2022/05/02 19:50:12;;;;;;;8.63;6.22;;;;;;;14.39;71.18;99645.97;12206416;19;20011;-84
2022/05/02 19:54:16;;;;;;;11.45;6.65;;;;;;;14.36;71.76;99639.88;12213377;19;20078;-84
2022/05/02 19:58:21;;;;;;;8.75;6.13;;;;;;;14.33;72.33;99647.91;12186396;19;20003;-84
2022/05/02 20:02:24;;;;;;;8.82;6.57;;;;;;;14.30;72.28;99648.47;12208173;19;20014;-83
2022/05/02 20:06:27;;;;;;;8.27;5.55;;;;;;;14.28;71.96;99636.84;12202126;19;20007;-82
2022/05/02 20:10:29;;;;;;;9.02;6.30;;;;;;;14.29;72.21;99644.06;12190119;19;20365;-82
2022/05/02 20:14:31;;;;;;;10.35;6.45;;;;;;;14.27;72.59;99646.25;12212231;19;20070;-82
2022/05/02 20:18:33;;;;;;;11.83;6.40;;;;;;;14.22;73.24;99637.94;12202655;19;20006;-82
2022/05/02 20:22:37;;;;;;;11.23;8.20;;;;;;;14.16;73.50;99639.91;12185227;19;20010;-83
2022/05/02 20:26:39;;;;;;;11.13;6.97;;;;;;;14.09;74.02;99640.16;12201732;19;20084;-82
2022/05/02 20:30:41;;;;;;;11.45;7.82;;;;;;;14.04;74.78;99642.97;12210205;19;20015;-82
2022/05/02 20:39:44;;;;;;;11.10;7.50;;;;;;;13.85;75.85;99644.59;12243145;19;20034;-83
2022/05/02 20:44:08;;;;;;;10.63;6.97;;;;;;;13.79;75.56;99645.69;12186425;19;20022;-82
2022/05/02 20:48:13;;;;;;;10.35;6.70;;;;;;;13.72;75.23;99642.38;12196157;19;20023;-82
2022/05/02 20:52:19;;;;;;;13.32;7.22;;;;;;;13.67;76.00;99643.19;12184114;19;20014;-81
2022/05/02 20:56:21;;;;;;;13.38;7.50;;;;;;;13.64;76.25;99640.97;12198610;19;20006;-82
2022/05/02 21:00:24;;;;;;;;;;;;;;;13.58;77.11;99648.44;12207033;19;20359;-82
2022/05/02 21:04:25;;;;;;;11.05;7.03;;;;;;;13.55;76.81;99640.66;12177555;19;19907;-82
2022/05/02 21:08:28;;;;;;;10.23;7.10;;;;;;;13.54;77.78;99639.03;12203143;19;20503;-82
2022/05/02 21:12:46;;;;;;;11.82;7.90;;;;;;;13.57;78.49;99641.25;12203377;19;20023;-82
2022/05/02 21:16:54;;;;;;;10.18;7.03;;;;;;;13.59;78.35;99647.34;12182070;19;20408;-82
2022/05/02 21:21:24;;;;;;;13.48;8.13;;;;;;;13.58;78.62;99645.66;12201944;19;20499;-81
2022/05/02 21:25:43;;;;;;;9.77;7.30;;;;;;;13.58;78.63;99647.59;12185229;19;20070;-82
2022/05/02 21:30:03;;;;;;;11.85;8.07;;;;;;;13.56;78.31;99636.78;12203883;19;20380;-81
2022/05/02 21:34:14;;;;;;;9.38;7.35;;;;;;;13.57;78.30;99638.47;12190207;19;20015;-81
2022/05/02 21:38:19;;;;;;;10.93;7.35;;;;;;;13.59;78.92;99643.72;12215661;19;20035;-81
2022/05/02 21:42:22;;;;;;;14.15;7.72;;;;;;;13.63;78.63;99647.63;12219362;19;20002;-81
2022/05/02 21:46:24;;;;;;;12.77;7.15;;;;;;;13.64;78.81;99644.56;12183913;19;20552;-81
2022/05/02 21:50:26;;;;;;;11.60;8.25;;;;;;;13.65;78.69;99646.25;12212898;19;20080;-81
2022/05/02 21:54:28;;;;;;;11.10;6.53;;;;;;;13.66;78.65;99639.59;12214093;19;20007;-82
2022/05/02 21:58:30;;;;;;;8.38;6.55;;;;;;;13.70;78.79;99636.28;12187024;19;20077;-81
2022/05/02 22:02:32;;;;;;;12.77;6.95;;;;;;;13.74;78.75;99631.84;12216901;19;20014;-81
2022/05/02 22:06:34;;;;;;;11.40;7.68;;;;;;;13.75;78.74;99634.34;12205277;19;20011;-83
2022/05/02 22:10:35;;;;;;;11.85;8.02;;;;;;;13.79;79.71;99634.63;12186532;19;20027;-82
2022/05/02 22:14:37;;;;;;;9.48;7.80;;;;;;;13.79;80.62;99629.91;12211442;19;20007;-81
2022/05/02 22:18:39;;;;;;;14.32;8.07;;;;;;;13.80;80.67;99631.59;12209574;19;20007;-82
2022/05/02 22:22:41;;;;;;;12.00;7.57;;;;;;;13.81;80.51;99643.50;12181386;19;20292;-83